Pretty Hana — DSQJ5 — position and weather

sailwx.info

Track history (hours):
 
Tides and Currents Weather Stations Pressure Air Temp Water Temp Dewpoint Dewpoint Depression Visibility Wind Speed Wind Dir Waves Ship Positions

Pretty Hana

Last reported at 2017-Apr-28 10:01 UTC. Time now 2017-Apr-28 14:03 UTC.
Position N 31°23' E 121°36'.

Length 64 m; draft 3.7 m.

Type: Ship (hazmat cat B). MMSI: 441600000.

Date/timePositionNaut miles runAvg speedWind from/ knotsBaromVisibWave heightAir tempDewpointWater temp
2017-Apr-28 10:01N 31°23' E 121°36'111.6
2017-Apr-28 09:58N 31°23' E 121°35'511.5
2017-Apr-28 09:30N 31°26' E 121°30'5 9.7
2017-Apr-28 09:00N 31°29' E 121°26'611.1
2017-Apr-28 08:30N 31°33' E 121°20'510.3
2017-Apr-28 08:00N 31°36' E 121°17'5 9.5
2017-Apr-28 07:30N 31°40' E 121°12'4 8.8
2017-Apr-28 07:00N 31°42' E 121°08'4 0.1
2017-Apr-27 06:00N 31°45' E 121°06'611.5
2017-Apr-27 05:30N 31°41' E 121°11'611.3
2017-Apr-27 05:00N 31°37' E 121°16'611.4
2017-Apr-27 04:30N 31°33' E 121°20'611.4
2017-Apr-27 04:00N 31°30' E 121°25'  
Track history (hours):
 
Tides and Currents Weather Stations Pressure Air Temp Water Temp Dewpoint Dewpoint Depression Visibility Wind Speed Wind Dir Waves Ship Positions

Pretty Hana

Last reported at 2017-Apr-28 10:01 UTC. Time now 2017-Apr-28 14:03 UTC.
Position N 31°23' E 121°36'.

Length 64 m; draft 3.7 m.

Type: Ship (hazmat cat B). MMSI: 441600000.

Date/timePositionNaut miles runAvg speedWind from/ knotsBaromVisibWave heightAir tempDewpointWater temp
2017-Apr-28 10:01N 31°23' E 121°36'111.6
2017-Apr-28 09:58N 31°23' E 121°35'511.5
2017-Apr-28 09:30N 31°26' E 121°30'5 9.7
2017-Apr-28 09:00N 31°29' E 121°26'611.1
2017-Apr-28 08:30N 31°33' E 121°20'510.3
2017-Apr-28 08:00N 31°36' E 121°17'5 9.5
2017-Apr-28 07:30N 31°40' E 121°12'4 8.8
2017-Apr-28 07:00N 31°42' E 121°08'4 0.1
2017-Apr-27 06:00N 31°45' E 121°06'611.5
2017-Apr-27 05:30N 31°41' E 121°11'611.3
2017-Apr-27 05:00N 31°37' E 121°16'611.4
2017-Apr-27 04:30N 31°33' E 121°20'611.4
2017-Apr-27 04:00N 31°30' E 121°25'  

Dump ship's entire track history